createdAt,value
2022-11-05T00:02:43.693Z,100783.41
2022-11-05T00:05:30.545Z,100783.88
2022-11-05T00:08:18.631Z,100794.19
2022-11-05T00:10:46.739Z,100797.06
2022-11-05T00:13:32.658Z,100791.91
2022-11-05T00:16:19.215Z,100803.38
2022-11-05T00:19:06.242Z,100803.56
2022-11-05T00:21:51.323Z,100798.25
2022-11-05T00:24:36.972Z,100811.91
2022-11-05T00:27:05.303Z,100803.22
2022-11-05T00:29:33.190Z,100805.00
2022-11-05T00:32:02.800Z,100810.47
2022-11-05T00:34:30.657Z,100809.50
2022-11-05T00:36:58.485Z,100803.81
2022-11-05T00:39:26.346Z,100814.00
2022-11-05T00:42:08.260Z,100815.03
2022-11-05T00:44:52.571Z,100820.22
2022-11-05T00:47:39.385Z,100813.19
2022-11-05T00:50:07.734Z,100817.13
2022-11-05T00:52:53.065Z,100816.00
2022-11-05T00:55:21.049Z,100815.81
2022-11-05T00:57:48.885Z,100832.56
2022-11-05T01:00:17.235Z,100834.16
2022-11-05T01:02:46.856Z,100838.88
2022-11-05T01:05:15.188Z,100842.34
2022-11-05T01:07:43.128Z,100834.28
2022-11-05T01:10:11.144Z,100834.72
2022-11-05T01:12:39.011Z,100851.81
2022-11-05T01:15:08.074Z,100852.06
2022-11-05T01:17:35.948Z,100850.97
2022-11-05T01:20:06.015Z,100853.19
2022-11-05T01:22:33.857Z,100860.41
2022-11-05T01:25:01.713Z,100853.97
2022-11-05T01:27:29.550Z,100855.75
2022-11-05T01:29:57.596Z,100861.41
2022-11-05T01:32:25.387Z,100856.53
2022-11-05T01:34:53.302Z,100854.31
2022-11-05T01:37:22.642Z,100852.78
2022-11-05T01:39:50.566Z,100859.84
2022-11-05T01:42:22.825Z,100866.94
2022-11-05T01:44:58.802Z,100868.16
2022-11-05T01:47:32.449Z,100863.88
2022-11-05T01:50:03.673Z,100861.06
2022-11-05T01:52:36.148Z,100862.41
2022-11-05T01:55:05.816Z,100863.84
2022-11-05T01:57:34.185Z,100861.84
2022-11-05T02:00:02.844Z,100860.78
2022-11-05T02:02:41.066Z,100879.53
2022-11-05T02:05:12.588Z,100883.88
2022-11-05T02:07:43.589Z,100892.56
2022-11-05T02:10:14.963Z,100890.59
2022-11-05T02:12:46.726Z,100899.59
2022-11-05T02:15:17.442Z,100890.47
2022-11-05T02:17:53.893Z,100901.44
2022-11-05T02:20:32.750Z,100907.75
2022-11-05T02:23:45.931Z,100908.25
2022-11-05T02:27:10.544Z,100912.91
2022-11-05T02:30:08.320Z,100909.38
2022-11-05T02:32:59.534Z,100910.00
2022-11-05T02:35:38.767Z,100907.44
2022-11-05T02:38:10.247Z,100909.38
2022-11-05T02:40:51.028Z,100913.75
2022-11-05T02:43:29.756Z,100921.41
2022-11-05T02:46:03.247Z,100926.41
2022-11-05T02:48:41.806Z,100927.16
2022-11-05T02:51:17.372Z,100922.66
2022-11-05T02:53:50.928Z,100924.84
2022-11-05T02:56:23.479Z,100928.97
2022-11-05T02:58:51.418Z,100932.41
2022-11-05T03:01:19.499Z,100934.06
2022-11-05T03:03:52.605Z,100938.00
2022-11-05T03:06:43.128Z,100942.84
2022-11-05T03:09:28.969Z,100950.63
2022-11-05T03:12:07.520Z,100947.00
2022-11-05T03:14:42.997Z,100949.19
2022-11-05T03:17:19.219Z,100946.75
2022-11-05T03:19:51.008Z,100961.09
2022-11-05T03:22:25.416Z,100961.84
2022-11-05T03:24:59.162Z,100960.72
2022-11-05T03:27:31.192Z,100955.00
2022-11-05T03:30:03.261Z,100969.88
2022-11-05T03:32:34.959Z,100968.06
2022-11-05T03:35:09.136Z,100971.06
2022-11-05T03:37:41.604Z,100977.53
2022-11-05T03:40:12.978Z,100982.25
2022-11-05T03:42:47.358Z,100991.56
2022-11-05T03:45:20.718Z,100992.53
2022-11-05T03:47:50.420Z,100996.41
2022-11-05T03:50:24.943Z,100991.78
2022-11-05T03:52:54.957Z,100994.97
2022-11-05T03:55:33.576Z,101000.69
2022-11-05T03:58:04.013Z,100999.31
2022-11-05T04:00:32.175Z,101004.09
2022-11-05T04:03:00.033Z,101001.50
2022-11-05T04:05:29.494Z,101006.25
2022-11-05T04:08:14.774Z,101007.97
2022-11-05T04:11:00.015Z,101019.28
2022-11-05T04:13:28.227Z,101019.03
2022-11-05T04:16:14.542Z,101031.38
2022-11-05T04:18:43.256Z,101034.72
2022-11-05T04:21:30.108Z,101036.75
2022-11-05T04:24:10.018Z,101034.22
2022-11-05T04:26:39.065Z,101030.84
2022-11-05T04:29:24.879Z,101041.00
2022-11-05T04:31:53.100Z,101041.47
2022-11-05T04:34:22.067Z,101048.31
2022-11-05T04:36:52.315Z,101055.06
2022-11-05T04:39:21.350Z,101059.03
2022-11-05T04:41:49.571Z,101053.97
2022-11-05T04:44:17.743Z,101058.84
2022-11-05T04:46:45.633Z,101060.31
2022-11-05T04:49:13.477Z,101053.53
2022-11-05T04:51:41.349Z,101055.53
2022-11-05T04:54:10.594Z,101052.69
2022-11-05T04:56:38.427Z,101057.81
2022-11-05T04:59:06.279Z,101054.19
2022-11-05T05:01:34.151Z,101052.84
2022-11-05T05:04:02.038Z,101061.50
2022-11-05T05:06:29.849Z,101060.22
2022-11-05T05:08:57.771Z,101053.00
2022-11-05T05:11:27.162Z,101060.72
2022-11-05T05:13:54.979Z,101054.63
2022-11-05T05:16:25.594Z,101052.47
2022-11-05T05:18:54.239Z,101054.19
2022-11-05T05:21:41.108Z,101050.69
2022-11-05T05:24:10.540Z,101059.00
2022-11-05T05:26:42.015Z,101065.50
2022-11-05T05:29:10.834Z,101079.56
2022-11-05T05:31:39.067Z,101075.19
2022-11-05T05:34:08.712Z,101085.44
2022-11-05T05:36:36.511Z,101084.31
2022-11-05T05:39:06.698Z,101086.56
2022-11-05T05:41:34.878Z,101094.91
2022-11-05T05:44:06.003Z,101102.19
2022-11-05T05:46:33.858Z,101110.53
2022-11-05T05:49:01.779Z,101105.00
2022-11-05T05:51:29.639Z,101109.34
2022-11-05T05:53:58.514Z,101111.88
2022-11-05T05:56:26.571Z,101109.50
2022-11-05T05:58:54.772Z,101112.72
2022-11-05T06:01:24.274Z,101113.81
2022-11-05T06:03:52.391Z,101128.69
2022-11-05T06:06:21.157Z,101130.50
2022-11-05T06:08:49.987Z,101141.81
2022-11-05T06:11:17.947Z,101155.06
2022-11-05T06:13:45.795Z,101141.78
2022-11-05T06:16:13.689Z,101148.84
2022-11-05T06:18:43.301Z,101149.81
2022-11-05T06:21:13.135Z,101150.75
2022-11-05T06:23:42.749Z,101161.81
2022-11-05T06:26:12.719Z,101162.88
2022-11-05T06:28:42.088Z,101162.69
2022-11-05T06:31:10.246Z,101171.31
2022-11-05T06:33:38.399Z,101171.44
2022-11-05T06:36:09.861Z,101179.41
2022-11-05T06:38:38.148Z,101181.19
2022-11-05T06:41:10.283Z,101192.84
2022-11-05T06:43:38.936Z,101196.47
2022-11-05T06:46:07.482Z,101202.66
2022-11-05T06:48:35.609Z,101193.91
2022-11-05T06:51:03.682Z,101202.44
2022-11-05T06:53:33.377Z,101201.91
2022-11-05T06:56:03.429Z,101202.13
2022-11-05T06:58:32.084Z,101210.28
2022-11-05T07:01:03.606Z,101207.69
2022-11-05T07:03:31.886Z,101214.09
2022-11-05T07:06:01.385Z,101218.63
2022-11-05T07:08:33.461Z,101218.19
2022-11-05T07:11:01.364Z,101220.97
2022-11-05T07:13:29.245Z,101226.97
2022-11-05T07:15:57.230Z,101229.09
2022-11-05T07:18:25.211Z,101234.44
2022-11-05T07:20:53.104Z,101239.28
2022-11-05T07:23:20.991Z,101246.34
2022-11-05T07:25:50.670Z,101247.50
2022-11-05T07:28:18.997Z,101253.28
2022-11-05T07:30:48.184Z,101267.50
2022-11-05T07:33:16.045Z,101273.19
2022-11-05T07:35:44.012Z,101272.75
2022-11-05T07:38:12.066Z,101276.38
2022-11-05T07:40:39.925Z,101269.00
2022-11-05T07:43:09.492Z,101262.59
2022-11-05T07:45:37.532Z,101261.41
2022-11-05T07:48:06.100Z,101258.84
2022-11-05T07:50:35.799Z,101257.03
2022-11-05T07:53:05.617Z,101257.44
2022-11-05T07:55:34.221Z,101256.69
2022-11-05T07:58:02.041Z,101263.34
2022-11-05T08:00:32.044Z,101264.41
2022-11-05T08:03:08.223Z,101265.88
2022-11-05T08:05:38.089Z,101276.63
2022-11-05T08:08:07.274Z,101273.41
2022-11-05T08:10:35.928Z,101288.78
2022-11-05T08:13:04.465Z,101288.78
2022-11-05T08:15:34.143Z,101283.13
2022-11-05T08:18:03.287Z,101278.63
2022-11-05T08:20:32.103Z,101291.69
2022-11-05T08:23:00.152Z,101298.13
2022-11-05T08:25:28.133Z,101295.66
2022-11-05T08:27:57.590Z,101299.59
2022-11-05T08:30:26.139Z,101300.75
2022-11-05T08:33:02.469Z,101314.19
2022-11-05T08:35:30.836Z,101308.50
2022-11-05T08:37:59.251Z,101309.13
2022-11-05T08:40:27.833Z,101316.66
2022-11-05T08:42:58.083Z,101317.50
2022-11-05T08:45:26.070Z,101321.13
2022-11-05T08:48:01.334Z,101320.84
2022-11-05T08:50:29.667Z,101325.13
2022-11-05T08:52:57.644Z,101322.84
2022-11-05T08:55:28.356Z,101327.44
2022-11-05T08:57:57.332Z,101322.84
2022-11-05T09:00:25.409Z,101321.44
2022-11-05T09:02:53.348Z,101320.28
2022-11-05T09:05:22.785Z,101326.19
2022-11-05T09:07:51.623Z,101328.69
2022-11-05T09:10:24.810Z,101337.47
2022-11-05T09:12:52.657Z,101334.72
2022-11-05T09:15:20.503Z,101342.09
2022-11-05T09:17:48.348Z,101334.78
2022-11-05T09:20:16.183Z,101341.50
2022-11-05T09:22:46.252Z,101338.72
2022-11-05T09:25:15.248Z,101337.22
2022-11-05T09:27:43.199Z,101342.56
2022-11-05T09:30:12.589Z,101347.59
2022-11-05T09:32:40.632Z,101346.75
2022-11-05T09:35:09.525Z,101351.06
2022-11-05T09:37:38.384Z,101350.28
2022-11-05T09:40:09.007Z,101354.09
2022-11-05T09:42:41.849Z,101354.31
2022-11-05T09:45:14.628Z,101362.63
2022-11-05T09:47:48.216Z,101355.69
2022-11-05T09:50:19.861Z,101357.22
2022-11-05T09:52:47.845Z,101358.03
2022-11-05T09:55:22.194Z,101356.72
2022-11-05T09:57:53.775Z,101352.03
2022-11-05T10:00:21.810Z,101362.56
2022-11-05T10:02:53.168Z,101351.47
2022-11-05T10:05:23.353Z,101362.78
2022-11-05T10:07:54.641Z,101368.34
2022-11-05T10:10:36.438Z,101365.53
2022-11-05T10:13:14.678Z,101359.25
2022-11-05T10:15:52.030Z,101365.09
2022-11-05T10:18:26.047Z,101366.09
2022-11-05T10:20:53.876Z,101362.81
2022-11-05T10:23:23.497Z,101366.88
2022-11-05T10:25:57.096Z,101364.63
2022-11-05T10:28:26.991Z,101364.06
2022-11-05T10:30:59.447Z,101376.88
2022-11-05T10:33:33.215Z,101369.41
2022-11-05T10:36:05.419Z,101370.69
2022-11-05T10:38:34.021Z,101370.16
2022-11-05T10:41:15.128Z,101366.03
2022-11-05T10:43:48.541Z,101377.06
2022-11-05T10:46:25.928Z,101387.84
2022-11-05T10:49:11.572Z,101385.06
2022-11-05T10:51:40.162Z,101380.56
2022-11-05T10:54:19.050Z,101390.38
2022-11-05T10:56:48.578Z,101399.81
2022-11-05T10:59:24.850Z,101385.78
2022-11-05T11:02:02.144Z,101389.53
2022-11-05T11:04:37.440Z,101395.28
2022-11-05T11:07:06.496Z,101390.25
2022-11-05T11:09:37.254Z,101383.91
2022-11-05T11:12:14.287Z,101381.25
2022-11-05T11:14:42.116Z,101387.28
2022-11-05T11:17:27.843Z,101384.78
2022-11-05T11:20:20.863Z,101381.09
2022-11-05T11:23:11.630Z,101386.19
2022-11-05T11:25:48.077Z,101383.09
2022-11-05T11:28:22.912Z,101388.63
2022-11-05T11:30:55.085Z,101381.53
2022-11-05T11:33:28.215Z,101386.19
2022-11-05T11:35:56.519Z,101382.09
2022-11-05T11:38:26.266Z,101387.06
2022-11-05T11:41:02.267Z,101386.22
2022-11-05T11:43:37.078Z,101387.59
2022-11-05T11:46:09.878Z,101397.84
2022-11-05T11:48:41.821Z,101390.34
2022-11-05T11:51:29.779Z,101393.03
2022-11-05T11:53:58.774Z,101389.63
2022-11-05T11:56:27.500Z,101389.63
2022-11-05T11:58:58.361Z,101383.22
2022-11-05T12:01:55.133Z,101389.16
2022-11-05T12:04:38.490Z,101391.16
2022-11-05T12:07:18.735Z,101387.63
2022-11-05T12:10:04.284Z,101386.31
2022-11-05T12:12:41.740Z,101389.50
2022-11-05T12:15:28.718Z,101400.72
2022-11-05T12:18:01.549Z,101396.78
2022-11-05T12:20:58.320Z,101393.56
2022-11-05T12:23:58.518Z,101400.66
2022-11-05T12:26:39.671Z,101397.19
2022-11-05T12:29:34.555Z,101407.81
2022-11-05T12:32:28.815Z,101405.84
2022-11-05T12:35:05.681Z,101410.81
2022-11-05T12:37:38.490Z,101399.31
2022-11-05T12:40:21.781Z,101393.38
2022-11-05T12:43:10.548Z,101394.66
2022-11-05T12:45:46.788Z,101408.34
2022-11-05T12:48:35.803Z,101394.09
2022-11-05T12:51:17.412Z,101397.97
2022-11-05T12:53:58.707Z,101392.69
2022-11-05T12:56:33.183Z,101391.31
2022-11-05T12:59:07.322Z,101391.19
2022-11-05T13:01:37.966Z,101398.47
2022-11-05T13:04:16.128Z,101391.09
2022-11-05T13:06:49.534Z,101397.16
2022-11-05T13:09:21.004Z,101398.91
2022-11-05T13:11:53.733Z,101394.16
2022-11-05T13:14:26.642Z,101406.28
2022-11-05T13:16:59.872Z,101405.38
2022-11-05T13:19:34.450Z,101401.03
2022-11-05T13:22:09.748Z,101404.41
2022-11-05T13:24:43.335Z,101413.91
2022-11-05T13:27:30.197Z,101407.41
2022-11-05T13:30:04.044Z,101403.66
2022-11-05T13:32:36.383Z,101408.72
2022-11-05T13:35:08.765Z,101413.03
2022-11-05T13:37:58.559Z,101422.28
2022-11-05T13:40:39.055Z,101430.34
2022-11-05T13:43:22.879Z,101438.38
2022-11-05T13:46:06.230Z,101432.16
2022-11-05T13:48:48.958Z,101440.91
2022-11-05T13:51:47.403Z,101441.25
2022-11-05T13:54:51.195Z,101435.84
2022-11-05T13:57:34.645Z,101435.19
2022-11-05T14:00:12.504Z,101432.75
2022-11-05T14:02:45.246Z,101435.22
2022-11-05T14:05:24.948Z,101445.06
2022-11-05T14:07:55.615Z,101440.59
2022-11-05T14:10:32.464Z,101445.69
2022-11-05T14:13:06.391Z,101443.59
2022-11-05T14:15:34.442Z,101448.69
2022-11-05T14:18:04.110Z,101445.50
2022-11-05T14:20:47.838Z,101454.31
2022-11-05T14:23:39.403Z,101459.22
2022-11-05T14:26:19.471Z,101451.69
2022-11-05T14:28:49.964Z,101450.09
2022-11-05T14:34:55.451Z,101451.78
2022-11-05T14:37:42.109Z,101447.03
2022-11-05T14:40:36.249Z,101461.22
2022-11-05T14:43:05.159Z,101456.84
2022-11-05T14:45:36.203Z,101462.88
2022-11-05T14:48:06.675Z,101468.63
2022-11-05T14:50:40.212Z,101472.66
2022-11-05T14:53:13.497Z,101472.56
2022-11-05T14:55:44.709Z,101482.63
2022-11-05T14:58:33.741Z,101474.03
2022-11-05T15:01:04.113Z,101479.41
2022-11-05T15:04:00.794Z,101477.38
2022-11-05T15:06:35.210Z,101483.72
2022-11-05T15:09:18.326Z,101481.03
2022-11-05T15:12:09.154Z,101484.34
2022-11-05T15:14:43.364Z,101480.91
2022-11-05T15:17:25.626Z,101486.75
2022-11-05T15:19:54.285Z,101484.19
2022-11-05T15:22:29.209Z,101496.19
2022-11-05T15:24:57.494Z,101490.94
2022-11-05T15:27:44.341Z,101484.19
2022-11-05T15:30:16.606Z,101492.69
2022-11-05T15:32:44.638Z,101487.16
2022-11-05T15:35:21.242Z,101500.31
2022-11-05T15:37:55.936Z,101502.88
2022-11-05T15:40:29.437Z,101507.78
2022-11-05T15:43:16.391Z,101510.88
2022-11-05T15:45:44.452Z,101505.78
2022-11-05T15:48:16.435Z,101506.53
2022-11-05T15:50:44.408Z,101503.84
2022-11-05T15:53:44.166Z,101510.53
2022-11-05T15:56:15.538Z,101504.88
2022-11-05T15:58:48.912Z,101511.63
2022-11-05T16:01:21.225Z,101506.25
2022-11-05T16:03:49.684Z,101515.50
2022-11-05T16:06:17.814Z,101508.78
2022-11-05T16:08:49.378Z,101518.91
2022-11-05T16:11:25.472Z,101517.66
2022-11-05T16:14:13.433Z,101519.91
2022-11-05T16:16:41.559Z,101525.13
2022-11-05T16:19:40.550Z,101518.94
2022-11-05T16:22:09.150Z,101521.06
2022-11-05T16:24:37.228Z,101521.34
2022-11-05T16:27:06.226Z,101515.97
2022-11-05T16:29:37.648Z,101517.34
2022-11-05T16:32:07.507Z,101523.34
2022-11-05T16:34:39.133Z,101525.13
2022-11-05T16:37:09.144Z,101525.28
2022-11-05T16:39:37.183Z,101525.75
2022-11-05T16:42:38.108Z,101529.19
2022-11-05T16:45:09.432Z,101534.56
2022-11-05T16:47:37.568Z,101537.41
2022-11-05T16:50:16.022Z,101536.19
2022-11-05T16:52:45.862Z,101548.84
2022-11-05T16:55:15.024Z,101545.81
2022-11-05T16:57:44.338Z,101554.50
2022-11-05T17:00:16.274Z,101554.25
2022-11-05T17:02:45.223Z,101559.28
2022-11-05T17:05:19.229Z,101559.81
2022-11-05T17:07:47.383Z,101567.47
2022-11-05T17:10:15.531Z,101567.03
2022-11-05T17:12:43.849Z,101576.91
2022-11-05T17:15:24.247Z,101584.41
2022-11-05T17:17:56.226Z,101593.69
2022-11-05T17:20:30.692Z,101594.06
2022-11-05T17:23:02.350Z,101593.03
2022-11-05T17:25:30.331Z,101593.34
2022-11-05T17:27:59.048Z,101600.50
2022-11-05T17:30:28.604Z,101599.16
2022-11-05T17:32:56.719Z,101599.44
2022-11-05T17:35:25.001Z,101604.41
2022-11-05T17:37:52.929Z,101600.97
2022-11-05T17:40:23.279Z,101609.97
2022-11-05T17:42:52.637Z,101613.59
2022-11-05T17:45:20.567Z,101608.47
2022-11-05T17:47:49.917Z,101615.34
2022-11-05T17:50:20.254Z,101608.47
2022-11-05T17:52:48.380Z,101614.25
2022-11-05T17:55:19.219Z,101623.59
2022-11-05T17:57:49.265Z,101623.06
2022-11-05T18:00:19.400Z,101616.19
2022-11-05T18:02:49.801Z,101621.44
2022-11-05T18:05:18.639Z,101623.16
2022-11-05T18:07:47.538Z,101627.22
2022-11-05T18:10:16.036Z,101620.69
2022-11-05T18:12:44.778Z,101621.66
2022-11-05T18:15:13.486Z,101623.47
2022-11-05T18:17:41.656Z,101626.50
2022-11-05T18:20:18.418Z,101625.75
2022-11-05T18:22:48.999Z,101619.84
2022-11-05T18:25:17.305Z,101623.16
2022-11-05T18:27:45.394Z,101613.81
2022-11-05T18:30:15.500Z,101612.13
2022-11-05T18:32:44.022Z,101619.53
2022-11-05T18:35:14.573Z,101609.97
2022-11-05T18:37:42.758Z,101614.25
2022-11-05T18:40:11.660Z,101613.06
2022-11-05T18:42:39.851Z,101611.13
2022-11-05T18:45:09.011Z,101610.50
2022-11-05T18:47:36.946Z,101615.84
2022-11-05T18:50:06.806Z,101618.94
2022-11-05T18:52:36.074Z,101614.56
2022-11-05T18:55:03.995Z,101620.03
2022-11-05T18:57:34.181Z,101617.53
2022-11-05T19:00:02.193Z,101618.41
2022-11-05T19:02:30.272Z,101623.66
2022-11-05T19:07:47.623Z,101624.69
2022-11-05T19:10:15.645Z,101625.53
2022-11-05T19:12:43.458Z,101615.16
2022-11-05T19:15:11.802Z,101617.31
2022-11-05T19:17:39.690Z,101622.78
2022-11-05T19:20:09.543Z,101622.97
2022-11-05T19:22:37.413Z,101622.94
2022-11-05T19:25:07.929Z,101627.69
2022-11-05T19:27:36.663Z,101627.91
2022-11-05T19:30:05.298Z,101628.00
2022-11-05T19:32:33.184Z,101634.13
2022-11-05T19:35:01.010Z,101633.47
2022-11-05T19:37:28.962Z,101635.56
2022-11-05T19:39:56.873Z,101633.22
2022-11-05T19:42:26.111Z,101632.47
2022-11-05T19:44:53.958Z,101632.22
2022-11-05T19:47:21.787Z,101640.25
2022-11-05T19:49:49.729Z,101633.56
2022-11-05T19:52:17.623Z,101634.75
2022-11-05T19:54:46.007Z,101635.22
2022-11-05T19:57:14.269Z,101633.63
2022-11-05T19:59:43.694Z,101630.63
2022-11-05T20:02:16.305Z,101625.94
2022-11-05T20:04:44.676Z,101624.75
2022-11-05T20:07:12.643Z,101635.53
2022-11-05T20:09:40.559Z,101628.28
2022-11-05T20:12:08.544Z,101644.88
2022-11-05T20:14:36.602Z,101640.03
2022-11-05T20:17:05.874Z,101644.50
2022-11-05T20:19:35.098Z,101648.56
2022-11-05T20:22:03.389Z,101650.47
2022-11-05T20:24:31.396Z,101648.38
2022-11-05T20:26:59.264Z,101646.34
2022-11-05T20:29:33.923Z,101649.03
2022-11-05T20:32:09.414Z,101653.16
2022-11-05T20:34:37.302Z,101661.63
2022-11-05T20:37:08.518Z,101666.78
2022-11-05T20:39:36.462Z,101657.63
2022-11-05T20:42:04.512Z,101668.25
2022-11-05T20:44:32.367Z,101668.34
2022-11-05T20:47:01.291Z,101677.09
2022-11-05T20:49:30.589Z,101669.19
2022-11-05T20:51:58.479Z,101668.41
2022-11-05T20:54:26.363Z,101659.63
2022-11-05T20:56:54.718Z,101666.91
2022-11-05T20:59:22.824Z,101656.22
2022-11-05T21:01:51.947Z,101665.38
2022-11-05T21:04:20.126Z,101669.56
2022-11-05T21:06:49.406Z,101669.19
2022-11-05T21:09:17.237Z,101668.63
2022-11-05T21:12:02.607Z,101671.28
2022-11-05T21:14:30.449Z,101658.28
2022-11-05T21:16:58.307Z,101679.50
2022-11-05T21:19:26.178Z,101681.69
2022-11-05T21:21:55.415Z,101685.88
2022-11-05T21:24:23.238Z,101684.38
2022-11-05T21:26:51.316Z,101681.78
2022-11-05T21:29:22.041Z,101685.22
2022-11-05T21:31:52.290Z,101685.97
2022-11-05T21:34:20.952Z,101683.22
2022-11-05T21:36:50.276Z,101680.88
2022-11-05T21:39:19.530Z,101675.25
2022-11-05T21:41:52.462Z,101667.66
2022-11-05T21:44:20.404Z,101664.97
2022-11-05T21:46:48.238Z,101665.31
2022-11-05T21:49:16.078Z,101665.16
2022-11-05T21:52:01.116Z,101671.03
2022-11-05T21:54:47.982Z,101671.41
2022-11-05T21:57:35.473Z,101655.63
2022-11-05T22:00:05.817Z,101658.69
2022-11-05T22:02:33.754Z,101665.53
2022-11-05T22:05:02.627Z,101674.84
2022-11-05T22:07:35.371Z,101673.13
2022-11-05T22:10:15.649Z,101667.78
2022-11-05T22:12:44.481Z,101656.16
2022-11-05T22:15:12.894Z,101666.25
2022-11-05T22:17:46.231Z,101664.16
2022-11-05T22:20:15.271Z,101657.66
2022-11-05T22:22:45.388Z,101658.56
2022-11-05T22:25:15.699Z,101661.88
2022-11-05T22:27:44.227Z,101663.91
2022-11-05T22:30:13.679Z,101665.00
2022-11-05T22:32:41.644Z,101672.69
2022-11-05T22:35:10.380Z,101667.41
2022-11-05T22:37:38.208Z,101670.75
2022-11-05T22:40:07.082Z,101667.63
2022-11-05T22:42:36.401Z,101663.59
2022-11-05T22:45:04.715Z,101661.22
2022-11-05T22:47:32.546Z,101657.09
2022-11-05T22:50:00.439Z,101655.69
2022-11-05T22:52:28.320Z,101663.13
2022-11-05T22:54:56.150Z,101672.25
2022-11-05T22:57:24.035Z,101669.81
2022-11-05T22:59:53.270Z,101671.97
2022-11-05T23:02:21.251Z,101669.47
2022-11-05T23:04:49.881Z,101668.00
2022-11-05T23:07:35.382Z,101666.91
2022-11-05T23:10:19.953Z,101665.00
2022-11-05T23:12:47.923Z,101667.84
2022-11-05T23:15:31.045Z,101661.94
2022-11-05T23:18:16.304Z,101665.63
2022-11-05T23:21:01.318Z,101669.22
2022-11-05T23:23:46.853Z,101670.81
2022-11-05T23:26:32.189Z,101670.09
2022-11-05T23:29:00.090Z,101662.44
2022-11-05T23:31:58.384Z,101667.34
2022-11-05T23:34:26.433Z,101661.38
2022-11-05T23:37:11.855Z,101666.03
2022-11-05T23:39:42.449Z,101663.28
2022-11-05T23:42:29.073Z,101654.69
2022-11-05T23:45:14.723Z,101653.16
2022-11-05T23:48:02.209Z,101650.97
2022-11-05T23:50:37.078Z,101648.28
2022-11-05T23:53:07.605Z,101646.53
2022-11-05T23:55:35.697Z,101656.53
2022-11-05T23:58:03.565Z,101653.72
